Time;durP1;ratioP1;P1;durP2;ratioP2;P2;SDS_P1;SDS_P2;PMS_P1;PMS_P2;Temp;Humidity;BMP_temperature;BMP_pressure;BME280_temperature;BME280_humidity;BME280_pressure;Samples;Min_cycle;Max_cycle;Signal;HPM_P1;HPM_P2
2023/11/04 00:00:01;;;;;;;3.67;2.30;;;;;;;;;;5021409;28;20415;-62
2023/11/04 00:02:28;;;;;;;5.25;2.55;;;;;;;;;;5019020;28;21204;-62
2023/11/04 00:04:56;;;;;;;5.97;2.92;;;;;;;;;;5022152;28;20485;-61
2023/11/04 00:07:23;;;;;;;6.00;2.78;;;;;;;;;;5018291;28;20486;-62
2023/11/04 00:09:50;;;;;;;3.93;2.77;;;;;;;;;;5020660;28;20445;-62
2023/11/04 00:12:17;;;;;;;6.22;2.85;;;;;;;;;;5020306;28;20423;-62
2023/11/04 00:14:44;;;;;;;4.95;2.75;;;;;;;;;;5018441;28;20507;-61
2023/11/04 00:17:11;;;;;;;4.75;2.92;;;;;;;;;;5020704;28;20422;-62
2023/11/04 00:19:38;;;;;;;6.45;3.08;;;;;;;;;;5020281;28;20478;-62
2023/11/04 00:22:07;;;;;;;5.18;3.38;;;;;;;;;;5022288;28;20483;-62
2023/11/04 00:24:34;;;;;;;4.50;2.58;;;;;;;;;;5019333;28;20408;-62
2023/11/04 00:27:01;;;;;;;7.05;3.08;;;;;;;;;;5023241;28;20492;-62
2023/11/04 00:29:28;;;;;;;6.00;2.88;;;;;;;;;;5025126;28;20543;-62
2023/11/04 00:31:55;;;;;;;7.68;3.35;;;;;;;;;;5024931;28;20442;-62
2023/11/04 00:34:22;;;;;;;3.30;2.50;;;;;;;;;;5025923;28;20504;-62
2023/11/04 00:36:49;;;;;;;6.13;2.73;;;;;;;;;;5021251;28;20449;-62
2023/11/04 00:39:17;;;;;;;5.18;3.10;;;;;;;;;;5015824;28;20457;-62
2023/11/04 00:41:44;;;;;;;3.83;2.60;;;;;;;;;;5017596;28;20420;-62
2023/11/04 00:44:11;;;;;;;3.03;2.47;;;;;;;;;;5021877;28;20420;-62
2023/11/04 00:46:38;;;;;;;4.72;2.83;;;;;;;;;;5017823;28;20495;-62
2023/11/04 00:49:06;;;;;;;4.32;2.60;;;;;;;;;;5023224;28;20521;-62
2023/11/04 00:51:33;;;;;;;6.45;2.53;;;;;;;;;;5020697;28;20491;-62
2023/11/04 00:54:00;;;;;;;4.18;2.50;;;;;;;;;;5022958;28;20415;-62
2023/11/04 00:56:28;;;;;;;3.83;3.08;;;;;;;;;;5022156;28;20941;-62
2023/11/04 00:58:55;;;;;;;4.22;2.70;;;;;;;;;;5021536;28;20411;-62
2023/11/04 01:01:22;;;;;;;4.15;2.53;;;;;;;;;;5021130;28;20494;-62
2023/11/04 01:03:49;;;;;;;3.30;2.42;;;;;;;;;;5021950;28;20451;-62
2023/11/04 01:06:16;;;;;;;4.50;2.25;;;;;;;;;;5020178;28;20943;-62
2023/11/04 01:08:44;;;;;;;3.25;2.20;;;;;;;;;;5023867;28;20430;-62
2023/11/04 01:11:11;;;;;;;3.38;2.50;;;;;;;;;;5021658;28;20417;-62
2023/11/04 01:13:40;;;;;;;2.50;1.80;;;;;;;;;;5021675;28;20449;-62
2023/11/04 01:16:07;;;;;;;4.30;2.15;;;;;;;;;;5024032;28;20434;-62
2023/11/04 01:18:34;;;;;;;4.05;2.20;;;;;;;;;;5021739;28;20872;-62
2023/11/04 01:21:01;;;;;;;2.88;2.03;;;;;;;;;;5021425;28;20413;-62
2023/11/04 01:23:28;;;;;;;4.53;2.60;;;;;;;;;;5013675;28;20427;-62
2023/11/04 01:25:55;;;;;;;2.30;1.80;;;;;;;;;;5019785;28;20412;-62
2023/11/04 01:28:22;;;;;;;2.47;1.88;;;;;;;;;;5021617;28;20814;-62
2023/11/04 01:30:50;;;;;;;2.80;2.10;;;;;;;;;;5023631;28;20418;-62
2023/11/04 01:33:18;;;;;;;3.25;1.92;;;;;;;;;;5019316;28;20490;-62
2023/11/04 01:35:45;;;;;;;3.08;1.90;;;;;;;;;;5022642;28;20414;-62
2023/11/04 01:38:12;;;;;;;2.58;2.20;;;;;;;;;;5021277;28;20467;-62
2023/11/04 01:40:39;;;;;;;3.47;1.70;;;;;;;;;;5026584;28;20416;-62
2023/11/04 01:43:06;;;;;;;2.22;1.80;;;;;;;;;;5024829;28;20421;-62
2023/11/04 01:45:35;;;;;;;3.03;2.15;;;;;;;;;;5023927;28;20520;-62
2023/11/04 01:48:03;;;;;;;4.57;2.10;;;;;;;;;;5021130;28;20437;-62
2023/11/04 01:50:31;;;;;;;2.05;1.65;;;;;;;;;;5021176;28;20518;-62
2023/11/04 01:52:58;;;;;;;2.00;1.73;;;;;;;;;;5023172;28;20418;-62
2023/11/04 01:55:25;;;;;;;2.20;1.75;;;;;;;;;;5021157;28;20958;-62
2023/11/04 01:57:52;;;;;;;3.20;1.75;;;;;;;;;;5021290;28;20416;-62
2023/11/04 02:00:20;;;;;;;1.73;1.50;;;;;;;;;;5023240;28;20411;-62
2023/11/04 02:02:48;;;;;;;2.50;1.90;;;;;;;;;;5021268;28;20420;-62
2023/11/04 02:05:17;;;;;;;1.70;1.33;;;;;;;;;;5021021;28;20500;-62
2023/11/04 02:07:43;;;;;;;2.55;1.80;;;;;;;;;;5019392;28;20428;-62
2023/11/04 02:10:11;;;;;;;3.03;1.73;;;;;;;;;;5021780;28;21028;-62
2023/11/04 02:12:38;;;;;;;1.75;1.60;;;;;;;;;;5022670;28;20425;-62
2023/11/04 02:15:06;;;;;;;3.00;2.00;;;;;;;;;;5020182;28;20443;-62
2023/11/04 02:17:33;;;;;;;3.10;2.03;;;;;;;;;;5021767;28;20423;-62
2023/11/04 02:20:03;;;;;;;3.40;1.55;;;;;;;;;;5022237;28;20845;-62
2023/11/04 02:22:31;;;;;;;2.00;1.48;;;;;;;;;;5019031;28;20839;-63
2023/11/04 02:24:59;;;;;;;3.05;2.05;;;;;;;;;;5021564;28;20416;-62
2023/11/04 02:27:25;;;;;;;2.28;2.00;;;;;;;;;;5020101;28;20420;-62
2023/11/04 02:29:52;;;;;;;2.10;1.80;;;;;;;;;;5015844;28;20907;-62
2023/11/04 02:32:19;;;;;;;2.72;2.30;;;;;;;;;;5021216;28;20403;-62
2023/11/04 02:34:47;;;;;;;2.55;2.20;;;;;;;;;;5019939;28;20415;-63
2023/11/04 02:37:14;;;;;;;2.88;1.85;;;;;;;;;;5021912;28;20475;-62
2023/11/04 02:39:42;;;;;;;2.42;2.10;;;;;;;;;;5020615;28;20421;-63
2023/11/04 02:42:09;;;;;;;2.58;2.10;;;;;;;;;;5016216;28;21138;-62
2023/11/04 02:44:36;;;;;;;2.97;1.35;;;;;;;;;;5016792;28;20511;-63
2023/11/04 02:47:03;;;;;;;2.35;1.70;;;;;;;;;;5020160;28;20422;-63
2023/11/04 02:49:30;;;;;;;2.10;1.90;;;;;;;;;;5018274;28;20428;-62
2023/11/04 02:51:57;;;;;;;2.92;2.20;;;;;;;;;;5022134;28;20426;-62
2023/11/04 02:54:24;;;;;;;2.08;1.70;;;;;;;;;;5018630;28;20416;-65
2023/11/04 02:56:52;;;;;;;4.00;2.33;;;;;;;;;;5020990;28;20419;-62
2023/11/04 02:59:19;;;;;;;3.30;1.90;;;;;;;;;;5019037;28;20471;-63
2023/11/04 03:01:46;;;;;;;2.87;2.03;;;;;;;;;;5019275;28;20471;-62
2023/11/04 03:04:14;;;;;;;2.53;2.10;;;;;;;;;;5019948;28;20503;-62
2023/11/04 03:06:41;;;;;;;2.13;1.80;;;;;;;;;;5020811;28;20416;-62
2023/11/04 03:09:08;;;;;;;1.80;1.30;;;;;;;;;;5021285;28;20928;-62
2023/11/04 03:11:35;;;;;;;3.30;1.73;;;;;;;;;;5020992;28;20498;-63
2023/11/04 03:14:03;;;;;;;2.78;1.60;;;;;;;;;;5019054;28;20424;-62
2023/11/04 03:16:30;;;;;;;3.83;1.38;;;;;;;;;;5021093;28;20893;-63
2023/11/04 03:18:57;;;;;;;2.83;1.57;;;;;;;;;;5020766;28;20916;-63
2023/11/04 03:21:24;;;;;;;1.73;1.33;;;;;;;;;;5019028;28;20417;-62
2023/11/04 03:23:51;;;;;;;2.75;1.63;;;;;;;;;;5021168;28;20490;-63
2023/11/04 03:26:19;;;;;;;2.83;1.50;;;;;;;;;;5020605;28;20412;-63
2023/11/04 03:28:46;;;;;;;2.17;1.50;;;;;;;;;;5018678;28;20989;-63
2023/11/04 03:31:14;;;;;;;1.80;1.33;;;;;;;;;;5021430;28;20415;-62
2023/11/04 03:33:41;;;;;;;1.80;1.50;;;;;;;;;;5020698;28;20416;-63
2023/11/04 03:36:09;;;;;;;2.58;1.70;;;;;;;;;;5020923;28;20828;-62
2023/11/04 03:38:38;;;;;;;2.17;1.58;;;;;;;;;;5019135;28;20409;-62
2023/11/04 03:41:05;;;;;;;2.15;1.70;;;;;;;;;;5019672;28;20421;-63
2023/11/04 03:43:32;;;;;;;1.63;1.40;;;;;;;;;;5021457;28;20805;-63
2023/11/04 03:45:59;;;;;;;1.95;1.50;;;;;;;;;;5019326;28;20417;-62
2023/11/04 03:48:28;;;;;;;3.10;1.85;;;;;;;;;;5019819;28;20844;-63
2023/11/04 03:50:55;;;;;;;2.92;1.77;;;;;;;;;;5021690;28;20423;-63
2023/11/04 03:53:22;;;;;;;2.15;1.42;;;;;;;;;;5019006;28;20819;-63
2023/11/04 03:55:49;;;;;;;3.03;2.10;;;;;;;;;;5021809;28;20436;-63
2023/11/04 03:58:16;;;;;;;1.85;1.70;;;;;;;;;;5025039;28;20419;-63
2023/11/04 04:00:43;;;;;;;2.10;1.60;;;;;;;;;;5023039;28;20474;-62
2023/11/04 04:03:10;;;;;;;3.08;2.10;;;;;;;;;;5023720;28;20886;-62
2023/11/04 04:05:38;;;;;;;2.70;1.70;;;;;;;;;;5024201;28;20796;-63
2023/11/04 04:08:05;;;;;;;2.25;1.60;;;;;;;;;;5019234;28;20406;-62
2023/11/04 04:10:33;;;;;;;1.80;1.50;;;;;;;;;;5024169;28;20424;-62
2023/11/04 04:13:00;;;;;;;2.08;1.75;;;;;;;;;;5022326;28;20408;-63
2023/11/04 04:15:27;;;;;;;2.45;1.40;;;;;;;;;;5024802;28;20411;-63
2023/11/04 04:17:54;;;;;;;3.72;1.70;;;;;;;;;;5023558;28;20471;-62
2023/11/04 04:20:21;;;;;;;4.00;1.73;;;;;;;;;;5022514;28;20458;-63
2023/11/04 04:22:50;;;;;;;2.00;1.52;;;;;;;;;;5018613;28;20819;-63
2023/11/04 04:25:18;;;;;;;2.75;2.00;;;;;;;;;;5023299;28;20415;-63
2023/11/04 04:27:45;;;;;;;2.13;1.80;;;;;;;;;;5023471;28;20415;-63
2023/11/04 04:30:12;;;;;;;1.70;1.55;;;;;;;;;;5018840;28;20504;-62
2023/11/04 04:32:39;;;;;;;2.47;2.28;;;;;;;;;;5027657;28;20415;-62
2023/11/04 04:35:06;;;;;;;2.90;2.10;;;;;;;;;;5024893;28;20505;-62
2023/11/04 04:37:34;;;;;;;3.30;2.08;;;;;;;;;;5020636;28;20412;-62
2023/11/04 04:40:04;;;;;;;4.53;1.77;;;;;;;;;;5025194;28;20424;-63
2023/11/04 04:42:31;;;;;;;2.85;1.63;;;;;;;;;;5029631;28;20417;-63
2023/11/04 04:44:59;;;;;;;3.33;2.05;;;;;;;;;;5024616;28;20825;-63
2023/11/04 04:47:26;;;;;;;3.13;2.20;;;;;;;;;;5023314;28;20413;-63
2023/11/04 04:49:53;;;;;;;3.85;1.88;;;;;;;;;;5021182;28;20523;-63
2023/11/04 04:52:20;;;;;;;2.70;1.85;;;;;;;;;;5024228;28;20494;-62
2023/11/04 04:54:47;;;;;;;2.95;1.80;;;;;;;;;;5023097;28;20416;-63
2023/11/04 04:57:15;;;;;;;2.63;1.52;;;;;;;;;;5021561;28;20494;-63
2023/11/04 04:59:42;;;;;;;3.03;1.80;;;;;;;;;;5021814;28;20483;-63
2023/11/04 05:02:09;;;;;;;2.55;1.60;;;;;;;;;;5022806;28;20569;-63
2023/11/04 05:04:36;;;;;;;4.10;1.60;;;;;;;;;;5023754;28;20886;-63
2023/11/04 05:07:03;;;;;;;1.55;1.20;;;;;;;;;;5017982;28;20411;-63
2023/11/04 05:09:30;;;;;;;2.20;1.50;;;;;;;;;;5022294;28;20432;-63
2023/11/04 05:11:57;;;;;;;2.37;1.70;;;;;;;;;;5021551;28;20444;-63
2023/11/04 05:14:25;;;;;;;3.25;1.65;;;;;;;;;;5024234;28;20881;-62
2023/11/04 05:16:52;;;;;;;2.95;1.70;;;;;;;;;;5022403;28;20412;-63
2023/11/04 05:19:20;;;;;;;2.80;1.90;;;;;;;;;;5021236;28;20443;-63
2023/11/04 05:21:47;;;;;;;2.63;1.80;;;;;;;;;;5023801;28;20450;-63
2023/11/04 05:24:15;;;;;;;3.00;1.48;;;;;;;;;;5022206;28;20412;-62
2023/11/04 05:26:42;;;;;;;2.80;1.80;;;;;;;;;;5021558;28;20795;-63
2023/11/04 05:29:09;;;;;;;2.27;1.60;;;;;;;;;;5023500;28;20427;-63
2023/11/04 05:31:37;;;;;;;2.80;1.50;;;;;;;;;;5021879;28;20495;-63
2023/11/04 05:34:04;;;;;;;2.95;1.60;;;;;;;;;;5021195;28;20412;-62
2023/11/04 05:36:31;;;;;;;2.95;1.67;;;;;;;;;;5024378;28;20490;-63
2023/11/04 05:38:58;;;;;;;2.72;1.63;;;;;;;;;;5022505;28;20469;-63
2023/11/04 05:41:25;;;;;;;3.00;1.70;;;;;;;;;;5023174;28;20411;-63
2023/11/04 05:43:52;;;;;;;2.40;1.48;;;;;;;;;;5020641;28;20416;-63
2023/11/04 05:46:20;;;;;;;1.52;1.33;;;;;;;;;;5022572;28;20821;-63
2023/11/04 05:48:48;;;;;;;2.03;1.70;;;;;;;;;;5022469;28;20411;-62
2023/11/04 05:51:24;;;;;;;3.47;2.13;;;;;;;;;;5020515;28;20409;-62
2023/11/04 05:53:51;;;;;;;2.65;1.70;;;;;;;;;;5021354;28;20500;-63
2023/11/04 05:56:18;;;;;;;2.15;1.50;;;;;;;;;;5023138;28;20488;-63
2023/11/04 05:58:46;;;;;;;2.38;1.45;;;;;;;;;;5021144;28;20413;-63
2023/11/04 06:01:13;;;;;;;3.22;1.50;;;;;;;;;;5021152;28;20421;-63
2023/11/04 06:03:40;;;;;;;3.63;1.90;;;;;;;;;;5023254;28;20411;-63
2023/11/04 06:06:08;;;;;;;2.10;1.60;;;;;;;;;;5016996;28;20429;-63
2023/11/04 06:08:35;;;;;;;1.92;1.40;;;;;;;;;;5022537;28;20419;-63
2023/11/04 06:11:02;;;;;;;3.30;1.90;;;;;;;;;;5018036;28;20797;-63
2023/11/04 06:13:30;;;;;;;2.42;1.98;;;;;;;;;;5020974;28;20428;-62
2023/11/04 06:15:57;;;;;;;2.58;1.70;;;;;;;;;;5022059;28;20522;-62
2023/11/04 06:18:24;;;;;;;2.30;1.60;;;;;;;;;;5019258;28;20447;-63
2023/11/04 06:20:51;;;;;;;2.95;1.42;;;;;;;;;;5020103;28;20879;-63
2023/11/04 06:23:19;;;;;;;2.42;1.52;;;;;;;;;;5020997;28;20411;-63
2023/11/04 06:25:46;;;;;;;2.38;1.50;;;;;;;;;;5018527;28;20420;-63
2023/11/04 06:28:13;;;;;;;1.93;1.60;;;;;;;;;;5021992;28;20561;-63
2023/11/04 06:30:40;;;;;;;3.33;1.92;;;;;;;;;;5021439;28;20452;-62
2023/11/04 06:33:07;;;;;;;3.00;1.67;;;;;;;;;;5019836;28;20411;-63
2023/11/04 06:35:34;;;;;;;2.42;1.77;;;;;;;;;;5019587;28;20407;-63
2023/11/04 06:38:01;;;;;;;3.20;2.03;;;;;;;;;;5019817;28;20412;-63
2023/11/04 06:40:30;;;;;;;1.73;1.60;;;;;;;;;;5019686;28;20419;-63
2023/11/04 06:42:57;;;;;;;1.87;1.50;;;;;;;;;;5016404;28;20409;-63
2023/11/04 06:45:24;;;;;;;2.47;1.88;;;;;;;;;;5020812;28;20414;-63
2023/11/04 06:47:53;;;;;;;2.35;1.40;;;;;;;;;;5022232;28;20488;-66
2023/11/04 06:50:20;;;;;;;2.13;1.80;;;;;;;;;;5009232;28;20799;-63
2023/11/04 06:52:47;;;;;;;2.45;1.70;;;;;;;;;;5016856;28;20468;-61
2023/11/04 06:55:15;;;;;;;1.92;1.50;;;;;;;;;;5016988;28;20415;-62
2023/11/04 06:57:43;;;;;;;3.88;2.10;;;;;;;;;;5022016;28;20415;-62
2023/11/04 07:00:11;;;;;;;2.83;1.95;;;;;;;;;;5020140;28;20418;-61
2023/11/04 07:02:40;;;;;;;1.93;1.73;;;;;;;;;;5018202;28;20506;-61
2023/11/04 07:05:09;;;;;;;2.50;1.77;;;;;;;;;;5023250;28;20467;-62
2023/11/04 07:07:37;;;;;;;2.03;1.73;;;;;;;;;;5019752;28;20769;-61
2023/11/04 07:10:05;;;;;;;2.20;1.60;;;;;;;;;;5021394;28;20917;-64
2023/11/04 07:12:34;;;;;;;2.92;2.40;;;;;;;;;;5019814;28;20500;-61
2023/11/04 07:15:03;;;;;;;2.35;1.75;;;;;;;;;;5022610;28;20967;-63
2023/11/04 07:17:31;;;;;;;2.25;1.77;;;;;;;;;;5017684;28;20413;-61
2023/11/04 07:19:58;;;;;;;3.10;2.20;;;;;;;;;;5019942;28;20413;-60
2023/11/04 07:22:25;;;;;;;3.20;1.77;;;;;;;;;;5022232;28;20442;-63
2023/11/04 07:24:52;;;;;;;2.40;1.90;;;;;;;;;;5010704;28;20590;-61
2023/11/04 07:27:19;;;;;;;2.00;1.80;;;;;;;;;;5017363;28;20469;-61
2023/11/04 07:29:46;;;;;;;1.90;1.60;;;;;;;;;;5019655;28;20445;-61
2023/11/04 07:32:15;;;;;;;2.93;1.97;;;;;;;;;;5017413;28;20463;-62
2023/11/04 07:34:42;;;;;;;3.63;1.97;;;;;;;;;;5018624;28;20482;-62
2023/11/04 07:37:09;;;;;;;2.30;1.95;;;;;;;;;;5021262;28;20422;-64
2023/11/04 07:39:38;;;;;;;2.20;1.95;;;;;;;;;;5019588;28;20503;-62
2023/11/04 07:42:05;;;;;;;3.17;1.83;;;;;;;;;;5017222;28;20433;-62
2023/11/04 07:44:33;;;;;;;3.00;1.80;;;;;;;;;;5021372;28;20462;-62
2023/11/04 07:47:00;;;;;;;2.08;1.63;;;;;;;;;;5024118;28;20461;-62
2023/11/04 07:49:28;;;;;;;2.67;1.70;;;;;;;;;;5019738;28;20545;-62
2023/11/04 07:51:55;;;;;;;2.38;2.03;;;;;;;;;;5017324;28;20471;-62
2023/11/04 07:54:23;;;;;;;2.17;1.67;;;;;;;;;;5022678;28;20819;-62
2023/11/04 07:56:51;;;;;;;2.15;1.63;;;;;;;;;;5019884;28;20458;-62
2023/11/04 07:59:18;;;;;;;1.90;1.55;;;;;;;;;;5021371;28;20407;-62
2023/11/04 08:01:45;;;;;;;4.80;2.08;;;;;;;;;;5018847;28;20408;-62
2023/11/04 08:04:12;;;;;;;2.70;2.00;;;;;;;;;;5019692;28;20882;-62
2023/11/04 08:06:40;;;;;;;2.70;1.70;;;;;;;;;;5019155;28;20416;-62
2023/11/04 08:09:08;;;;;;;2.45;1.67;;;;;;;;;;5017808;28;20461;-62
2023/11/04 08:11:35;;;;;;;2.35;1.60;;;;;;;;;;5019734;28;20483;-62
2023/11/04 08:14:02;;;;;;;3.38;1.83;;;;;;;;;;5018535;28;20417;-62
2023/11/04 08:16:29;;;;;;;1.60;1.50;;;;;;;;;;5021048;28;20411;-62
2023/11/04 08:18:56;;;;;;;2.85;1.80;;;;;;;;;;5019490;28;20420;-62
2023/11/04 08:21:29;;;;;;;2.60;1.70;;;;;;;;;;5018543;28;20471;-62
2023/11/04 08:23:57;;;;;;;2.72;1.67;;;;;;;;;;5016053;28;20405;-62
2023/11/04 08:26:24;;;;;;;2.95;1.67;;;;;;;;;;5018240;28;20415;-62
2023/11/04 08:28:51;;;;;;;2.55;1.83;;;;;;;;;;5017816;28;20421;-62
2023/11/04 08:31:18;;;;;;;2.80;2.10;;;;;;;;;;5021693;28;20783;-62
2023/11/04 08:33:46;;;;;;;2.80;1.98;;;;;;;;;;5018961;28;20554;-62
2023/11/04 08:36:13;;;;;;;2.40;1.33;;;;;;;;;;5021073;28;20418;-62
2023/11/04 08:38:40;;;;;;;2.80;1.70;;;;;;;;;;5018548;28;20417;-62
2023/11/04 08:41:08;;;;;;;5.35;2.63;;;;;;;;;;5019879;28;20886;-61
2023/11/04 08:43:36;;;;;;;2.42;1.60;;;;;;;;;;5024166;28;20932;-61
2023/11/04 08:46:04;;;;;;;4.67;1.60;;;;;;;;;;5022406;28;20519;-61
2023/11/04 08:48:31;;;;;;;3.70;2.00;;;;;;;;;;5022220;28;20416;-61
2023/11/04 08:50:58;;;;;;;3.60;1.98;;;;;;;;;;5024621;28;20476;-61
2023/11/04 08:53:25;;;;;;;3.40;1.67;;;;;;;;;;5022388;28;20776;-62
2023/11/04 08:55:52;;;;;;;2.75;1.83;;;;;;;;;;5025138;28;20896;-68
2023/11/04 08:58:20;;;;;;;2.28;1.50;;;;;;;;;;5021066;28;20416;-62
2023/11/04 09:00:48;;;;;;;1.85;1.60;;;;;;;;;;5023821;28;20464;-62
2023/11/04 09:03:15;;;;;;;2.30;1.48;;;;;;;;;;5023127;28;20419;-61
2023/11/04 09:05:43;;;;;;;3.67;1.98;;;;;;;;;;5021296;28;20884;-61
2023/11/04 09:08:10;;;;;;;3.63;2.00;;;;;;;;;;5023468;28;20426;-62
2023/11/04 09:10:37;;;;;;;1.98;1.60;;;;;;;;;;5023267;28;20535;-61
2023/11/04 09:13:06;;;;;;;3.30;2.00;;;;;;;;;;5021104;28;20412;-62
2023/11/04 09:15:34;;;;;;;3.15;1.98;;;;;;;;;;5021543;28;20467;-61
2023/11/04 09:18:01;;;;;;;3.70;2.10;;;;;;;;;;5021807;28;20456;-61
2023/11/04 09:20:30;;;;;;;2.20;1.80;;;;;;;;;;5024159;28;20418;-61
2023/11/04 09:22:57;;;;;;;3.92;1.90;;;;;;;;;;5021929;28;20413;-61
2023/11/04 09:25:24;;;;;;;3.40;1.80;;;;;;;;;;5021565;28;20491;-61
2023/11/04 09:27:51;;;;;;;3.28;1.95;;;;;;;;;;5023774;28;20429;-62
2023/11/04 09:30:19;;;;;;;1.45;1.20;;;;;;;;;;5021568;28;20860;-62
2023/11/04 09:32:48;;;;;;;4.63;1.80;;;;;;;;;;5021241;28;20427;-62
2023/11/04 09:35:15;;;;;;;2.50;1.90;;;;;;;;;;5023532;28;20915;-62
2023/11/04 09:37:43;;;;;;;1.92;1.40;;;;;;;;;;5021968;28;20427;-61
2023/11/04 09:40:10;;;;;;;2.50;1.90;;;;;;;;;;5022980;28;20498;-61
2023/11/04 09:42:37;;;;;;;2.00;1.50;;;;;;;;;;5020437;28;20495;-62
2023/11/04 09:45:05;;;;;;;2.33;1.90;;;;;;;;;;5022513;28;20415;-62
2023/11/04 09:47:32;;;;;;;2.10;1.80;;;;;;;;;;5019603;28;20413;-62
2023/11/04 09:50:01;;;;;;;2.00;1.80;;;;;;;;;;5022985;28;20433;-62
2023/11/04 09:52:28;;;;;;;2.45;1.70;;;;;;;;;;5020388;28;20872;-62
2023/11/04 09:54:57;;;;;;;2.00;1.50;;;;;;;;;;5020710;28;20950;-62
2023/11/04 09:57:24;;;;;;;2.72;1.98;;;;;;;;;;5022952;28;20495;-62
2023/11/04 09:59:51;;;;;;;3.28;1.90;;;;;;;;;;5021288;28;20467;-62
2023/11/04 10:02:19;;;;;;;2.53;1.63;;;;;;;;;;5019857;28;20460;-62
2023/11/04 10:04:46;;;;;;;3.65;1.80;;;;;;;;;;5019544;28;20441;-62
2023/11/04 10:07:14;;;;;;;3.08;1.80;;;;;;;;;;5022293;28;20411;-62
2023/11/04 10:09:41;;;;;;;2.87;1.73;;;;;;;;;;5019375;28;20412;-62
2023/11/04 10:12:08;;;;;;;3.47;1.70;;;;;;;;;;5023441;28;20431;-61
2023/11/04 10:14:35;;;;;;;3.70;1.75;;;;;;;;;;5021900;28;20820;-62
2023/11/04 10:17:02;;;;;;;2.90;2.10;;;;;;;;;;5021300;28;20412;-61
2023/11/04 10:19:29;;;;;;;2.88;1.63;;;;;;;;;;5022695;28;20806;-62
2023/11/04 10:21:56;;;;;;;3.80;1.90;;;;;;;;;;5021144;28;20420;-62
2023/11/04 10:24:25;;;;;;;2.70;1.95;;;;;;;;;;5020716;28;20416;-62
2023/11/04 10:26:52;;;;;;;3.33;1.40;;;;;;;;;;5019552;28;20413;-62
2023/11/04 10:29:19;;;;;;;2.67;1.70;;;;;;;;;;5021715;28;20415;-62
2023/11/04 10:31:48;;;;;;;4.78;2.20;;;;;;;;;;5021569;28;20480;-61
2023/11/04 10:34:15;;;;;;;2.30;1.70;;;;;;;;;;5019332;28;20425;-62
2023/11/04 10:36:46;;;;;;;6.22;2.00;;;;;;;;;;5023017;28;20444;-62
2023/11/04 10:39:15;;;;;;;3.83;1.80;;;;;;;;;;5017716;28;20423;-62
2023/11/04 10:41:44;;;;;;;3.63;1.90;;;;;;;;;;5011599;28;20411;-62
2023/11/04 10:44:15;;;;;;;3.45;2.22;;;;;;;;;;5024933;28;20422;-62
2023/11/04 10:46:45;;;;;;;3.38;1.92;;;;;;;;;;5018956;28;20474;-62
2023/11/04 10:49:15;;;;;;;3.13;1.60;;;;;;;;;;5021132;28;20419;-62
2023/11/04 10:51:44;;;;;;;4.05;1.90;;;;;;;;;;5016629;28;20427;-62
2023/11/04 10:54:11;;;;;;;4.63;1.50;;;;;;;;;;5020902;28;20821;-62
2023/11/04 10:56:43;;;;;;;4.55;1.85;;;;;;;;;;5021665;28;20413;-62
2023/11/04 10:59:15;;;;;;;3.03;1.70;;;;;;;;;;5016028;28;20874;-61
2023/11/04 11:01:43;;;;;;;2.85;1.90;;;;;;;;;;5018593;28;20412;-62
2023/11/04 11:04:10;;;;;;;4.57;1.70;;;;;;;;;;5021680;28;20900;-62
2023/11/04 11:06:37;;;;;;;4.18;1.85;;;;;;;;;;5018409;28;20459;-62
2023/11/04 11:09:05;;;;;;;4.70;2.13;;;;;;;;;;5020134;28;20414;-61
2023/11/04 11:11:37;;;;;;;3.65;2.20;;;;;;;;;;5018582;28;20523;-62
2023/11/04 11:14:04;;;;;;;4.30;1.85;;;;;;;;;;5016471;28;20424;-62
2023/11/04 11:16:33;;;;;;;4.10;2.05;;;;;;;;;;5018523;28;20409;-62
2023/11/04 11:19:09;;;;;;;4.18;2.10;;;;;;;;;;5014948;28;20907;-61
2023/11/04 11:21:49;;;;;;;4.82;2.03;;;;;;;;;;5019852;28;20408;-61
2023/11/04 11:24:16;;;;;;;4.22;2.33;;;;;;;;;;5018454;28;20510;-62
2023/11/04 11:26:49;;;;;;;3.47;2.20;;;;;;;;;;5018245;28;20417;-61
2023/11/04 11:29:20;;;;;;;5.60;2.33;;;;;;;;;;5020492;28;20457;-61
2023/11/04 11:31:49;;;;;;;4.47;2.00;;;;;;;;;;5017881;28;20490;-62
2023/11/04 11:34:16;;;;;;;4.07;2.10;;;;;;;;;;5020678;28;20510;-62
2023/11/04 11:36:45;;;;;;;6.55;2.20;;;;;;;;;;5014407;28;20530;-61
2023/11/04 11:39:13;;;;;;;4.15;2.20;;;;;;;;;;5021496;28;20458;-62
2023/11/04 11:41:43;;;;;;;3.95;2.00;;;;;;;;;;5017660;28;20808;-62
2023/11/04 11:44:10;;;;;;;3.72;1.63;;;;;;;;;;5021035;28;20913;-61
2023/11/04 11:46:37;;;;;;;4.35;1.80;;;;;;;;;;5018622;28;20768;-62
2023/11/04 11:49:07;;;;;;;4.32;1.90;;;;;;;;;;5020214;28;20411;-61
2023/11/04 11:51:35;;;;;;;3.78;2.08;;;;;;;;;;5021179;28;21009;-62
2023/11/04 11:54:02;;;;;;;5.90;2.30;;;;;;;;;;5021400;28;20414;-61
2023/11/04 11:56:30;;;;;;;4.97;1.80;;;;;;;;;;5019863;28;20428;-62
2023/11/04 11:58:57;;;;;;;2.30;1.40;;;;;;;;;;5019004;28;20498;-61
2023/11/04 12:01:24;;;;;;;6.68;2.50;;;;;;;;;;5015314;28;20458;-62
2023/11/04 12:03:51;;;;;;;6.30;2.85;;;;;;;;;;5019910;28;20870;-61
2023/11/04 12:06:19;;;;;;;4.10;1.92;;;;;;;;;;5017512;28;20415;-61
2023/11/04 12:08:48;;;;;;;4.90;2.00;;;;;;;;;;5018503;28;20785;-62
2023/11/04 12:11:15;;;;;;;3.30;2.00;;;;;;;;;;5018396;28;20432;-62
2023/11/04 12:13:42;;;;;;;3.37;1.70;;;;;;;;;;5018456;28;20728;-61
2023/11/04 12:16:09;;;;;;;4.03;2.08;;;;;;;;;;5018591;28;20411;-61
2023/11/04 12:18:36;;;;;;;3.35;1.85;;;;;;;;;;5023293;28;20424;-61
2023/11/04 12:21:04;;;;;;;3.65;1.70;;;;;;;;;;5026372;28;20407;-62
2023/11/04 12:23:33;;;;;;;4.38;1.73;;;;;;;;;;5021367;28;20465;-62
2023/11/04 12:26:02;;;;;;;2.85;1.55;;;;;;;;;;5023796;28;20420;-61
2023/11/04 12:28:28;;;;;;;5.90;1.70;;;;;;;;;;5021906;28;20439;-62
2023/11/04 12:31:03;;;;;;;4.60;1.90;;;;;;;;;;5024454;28;20459;-61
2023/11/04 12:33:30;;;;;;;3.13;1.70;;;;;;;;;;5024219;28;20427;-62
2023/11/04 12:35:58;;;;;;;2.90;1.80;;;;;;;;;;5021950;28;20474;-62
2023/11/04 12:38:26;;;;;;;3.08;1.90;;;;;;;;;;5025147;28;20898;-62
2023/11/04 12:40:54;;;;;;;2.25;1.52;;;;;;;;;;5024672;28;20418;-62
2023/11/04 12:43:22;;;;;;;3.15;1.55;;;;;;;;;;5021520;28;20906;-62
2023/11/04 12:45:49;;;;;;;2.13;1.70;;;;;;;;;;5022834;28;20482;-61
2023/11/04 12:48:18;;;;;;;2.47;1.33;;;;;;;;;;5024049;28;20412;-61
2023/11/04 12:50:45;;;;;;;3.07;1.37;;;;;;;;;;5019007;28;20479;-61
2023/11/04 12:53:12;;;;;;;4.05;1.90;;;;;;;;;;5023366;28;20488;-61
2023/11/04 12:55:39;;;;;;;3.08;1.90;;;;;;;;;;5024374;28;20414;-61
2023/11/04 12:58:07;;;;;;;3.88;1.88;;;;;;;;;;5021846;28;20978;-61
2023/11/04 13:00:36;;;;;;;2.97;1.80;;;;;;;;;;5023314;28;20419;-61
2023/11/04 13:03:03;;;;;;;1.83;1.58;;;;;;;;;;5027873;28;20456;-61
2023/11/04 13:05:30;;;;;;;2.15;1.70;;;;;;;;;;5028352;28;20411;-61
2023/11/04 13:07:57;;;;;;;2.60;2.05;;;;;;;;;;5020726;28;20448;-61
2023/11/04 13:10:24;;;;;;;3.97;2.05;;;;;;;;;;5021264;28;20822;-61
2023/11/04 13:12:51;;;;;;;3.00;1.70;;;;;;;;;;5020996;28;20494;-61
2023/11/04 13:15:20;;;;;;;3.67;1.30;;;;;;;;;;5022937;28;20419;-61
2023/11/04 13:17:47;;;;;;;3.10;1.80;;;;;;;;;;5024235;28;20809;-61
2023/11/04 13:20:17;;;;;;;3.50;2.17;;;;;;;;;;5023958;28;20538;-61
2023/11/04 13:22:44;;;;;;;3.05;1.83;;;;;;;;;;5022441;28;20487;-61
2023/11/04 13:25:11;;;;;;;3.35;1.75;;;;;;;;;;5021176;28;20449;-61
2023/11/04 13:27:38;;;;;;;4.07;2.30;;;;;;;;;;5023059;28;21029;-61
2023/11/04 13:30:06;;;;;;;3.00;1.75;;;;;;;;;;5022530;28;20479;-61
2023/11/04 13:32:34;;;;;;;3.80;1.83;;;;;;;;;;5020443;28;20432;-61
2023/11/04 13:35:01;;;;;;;4.00;2.20;;;;;;;;;;5022891;28;20827;-61
2023/11/04 13:37:28;;;;;;;3.67;1.88;;;;;;;;;;5021780;28;20529;-61
2023/11/04 13:39:55;;;;;;;4.95;1.73;;;;;;;;;;5023594;28;20522;-61
2023/11/04 13:42:22;;;;;;;2.58;1.63;;;;;;;;;;5023527;28;20407;-61
2023/11/04 13:44:49;;;;;;;2.67;1.90;;;;;;;;;;5022366;28;20486;-61
2023/11/04 13:47:16;;;;;;;4.20;1.88;;;;;;;;;;5020568;28;20955;-61
2023/11/04 13:49:45;;;;;;;3.13;2.00;;;;;;;;;;5017133;28;20408;-61
2023/11/04 13:52:13;;;;;;;3.33;2.10;;;;;;;;;;5021840;28;20430;-61
2023/11/04 13:54:40;;;;;;;2.30;1.60;;;;;;;;;;5023323;28;20407;-61
2023/11/04 13:57:08;;;;;;;2.00;1.80;;;;;;;;;;5020642;28;20534;-61
2023/11/04 13:59:35;;;;;;;3.92;1.80;;;;;;;;;;5021013;28;20502;-61
2023/11/04 14:02:02;;;;;;;2.50;1.60;;;;;;;;;;5019160;28;20843;-61
2023/11/04 14:04:29;;;;;;;1.92;1.45;;;;;;;;;;5022914;28;20862;-61
2023/11/04 14:06:57;;;;;;;3.20;1.70;;;;;;;;;;5021948;28;20417;-61
2023/11/04 14:09:24;;;;;;;2.58;1.85;;;;;;;;;;5020930;28;20412;-61
2023/11/04 14:11:51;;;;;;;4.55;2.25;;;;;;;;;;5015556;28;20426;-61
2023/11/04 14:14:18;;;;;;;2.40;2.20;;;;;;;;;;5017904;28;20479;-61
2023/11/04 14:16:46;;;;;;;4.03;2.08;;;;;;;;;;5014547;28;20422;-61
2023/11/04 14:19:15;;;;;;;2.20;2.00;;;;;;;;;;5017263;28;20414;-61
2023/11/04 14:21:42;;;;;;;3.03;2.00;;;;;;;;;;5019056;28;20561;-61
2023/11/04 14:24:12;;;;;;;3.22;1.80;;;;;;;;;;5022727;28;20513;-61
2023/11/04 14:26:40;;;;;;;2.57;1.60;;;;;;;;;;5016913;28;20507;-60
2023/11/04 14:29:07;;;;;;;4.10;2.45;;;;;;;;;;5021804;28;20501;-61
2023/11/04 14:31:34;;;;;;;2.08;1.75;;;;;;;;;;5018525;28;20421;-61
2023/11/04 14:34:02;;;;;;;2.10;1.83;;;;;;;;;;5020377;28;20412;-61
2023/11/04 14:36:29;;;;;;;3.03;1.88;;;;;;;;;;5019056;28;20838;-61
2023/11/04 14:38:56;;;;;;;2.45;1.90;;;;;;;;;;5018357;28;20416;-61
2023/11/04 14:41:25;;;;;;;2.75;1.75;;;;;;;;;;5021571;28;20422;-61
2023/11/04 14:43:52;;;;;;;2.20;1.58;;;;;;;;;;5022212;28;20416;-61